AVA8543 SKBO-SKAR
Flight info
| Callsign | AVA8543 |
|---|---|
| Flight time | 0h 27m |
| Altitude | 18000 |
| Route | ISNOX2S ISNOX ISNOX1K |
| Aircraft | A320/M-SDE3FGHIRWY/LB1 |
Departure
| Time | 2026-04-25 19:13 |
|---|---|
| Airport | El Dorado International Airport (SKBO) |
Arrival
| Time | 2026-04-25 19:40 |
|---|---|
| Airport | El Eden Airport (SKAR) |
| Time | Latitude | Longitude | Altitude | Speed | Heading |
|---|---|---|---|---|---|
| 2026-04-25 18:32 | 4.69931 | -74.14537 | 8367 ft | 0 kts | 186° |
| 2026-04-25 18:56 | 4.69932 | -74.14537 | 8366 ft | 0 kts | 186° |
| 2026-04-25 19:00 | 4.69977 | -74.14522 | 8366 ft | 4 kts | 224° |
| 2026-04-25 19:00 | 4.69988 | -74.14504 | 8366 ft | 4 kts | 291° |
| 2026-04-25 19:01 | 4.69959 | -74.14464 | 8366 ft | 2 kts | 307° |
| 2026-04-25 19:01 | 4.69958 | -74.14463 | 8366 ft | 0 kts | 307° |
| 2026-04-25 19:03 | 4.69966 | -74.14473 | 8366 ft | 3 kts | 307° |
| 2026-04-25 19:03 | 4.69985 | -74.14498 | 8366 ft | 6 kts | 307° |
| 2026-04-25 19:04 | 4.70049 | -74.14575 | 8366 ft | 8 kts | 325° |
| 2026-04-25 19:04 | 4.70094 | -74.14610 | 8366 ft | 9 kts | 311° |
| 2026-04-25 19:05 | 4.70153 | -74.14708 | 8366 ft | 9 kts | 240° |
| 2026-04-25 19:05 | 4.70044 | -74.14792 | 8366 ft | 10 kts | 216° |
| 2026-04-25 19:05 | 4.69985 | -74.14836 | 8366 ft | 11 kts | 216° |
| 2026-04-25 19:06 | 4.69921 | -74.14883 | 8366 ft | 12 kts | 216° |
| 2026-04-25 19:06 | 4.69882 | -74.15012 | 8366 ft | 14 kts | 308° |
| 2026-04-25 19:06 | 4.69944 | -74.15094 | 8366 ft | 16 kts | 307° |
| 2026-04-25 19:07 | 4.70095 | -74.15295 | 8366 ft | 20 kts | 307° |
| 2026-04-25 19:07 | 4.70183 | -74.15411 | 8365 ft | 22 kts | 307° |
| 2026-04-25 19:08 | 4.70379 | -74.15668 | 8365 ft | 25 kts | 307° |
| 2026-04-25 19:08 | 4.70484 | -74.15807 | 8366 ft | 25 kts | 307° |
| 2026-04-25 19:09 | 4.70798 | -74.16222 | 8366 ft | 25 kts | 307° |
| 2026-04-25 19:09 | 4.70866 | -74.16312 | 8366 ft | 25 kts | 307° |
| 2026-04-25 19:09 | 4.71108 | -74.16632 | 8366 ft | 24 kts | 307° |
| 2026-04-25 19:10 | 4.71200 | -74.16753 | 8366 ft | 16 kts | 307° |
| 2026-04-25 19:10 | 4.71249 | -74.16826 | 8366 ft | 11 kts | 283° |
| 2026-04-25 19:10 | 4.71209 | -74.16885 | 8366 ft | 10 kts | 216° |
| 2026-04-25 19:10 | 4.71136 | -74.16893 | 8364 ft | 12 kts | 172° |
| 2026-04-25 19:11 | 4.71071 | -74.16892 | 8363 ft | 7 kts | 203° |
| 2026-04-25 19:11 | 4.71051 | -74.16904 | 8363 ft | 2 kts | 202° |
| 2026-04-25 19:11 | 4.71037 | -74.16898 | 8363 ft | 3 kts | 146° |
| 2026-04-25 19:11 | 4.71023 | -74.16881 | 8363 ft | 2 kts | 127° |
| 2026-04-25 19:12 | 4.70981 | -74.16825 | 8363 ft | 31 kts | 127° |
| 2026-04-25 19:12 | 4.70694 | -74.16446 | 8366 ft | 102 kts | 127° |
| 2026-04-25 19:12 | 4.70144 | -74.15719 | 8364 ft | 158 kts | 127° |
| 2026-04-25 19:12 | 4.69403 | -74.14738 | 8710 ft | 181 kts | 127° |
| 2026-04-25 19:13 | 4.68647 | -74.13752 | 9540 ft | 178 kts | 133° |
| 2026-04-25 19:13 | 4.67542 | -74.13235 | 9857 ft | 182 kts | 185° |
| 2026-04-25 19:13 | 4.66419 | -74.13723 | 10332 ft | 179 kts | 227° |
| 2026-04-25 19:13 | 4.65675 | -74.14725 | 10743 ft | 180 kts | 235° |
| 2026-04-25 19:14 | 4.64965 | -74.15750 | 11185 ft | 180 kts | 236° |
| 2026-04-25 19:14 | 4.64732 | -74.16090 | 11239 ft | 186 kts | 236° |
| 2026-04-25 19:14 | 4.63414 | -74.18045 | 11474 ft | 218 kts | 236° |
| 2026-04-25 19:14 | 4.62529 | -74.19362 | 11588 ft | 237 kts | 236° |
| 2026-04-25 19:15 | 4.61653 | -74.20810 | 11860 ft | 248 kts | 249° |
| 2026-04-25 19:15 | 4.61206 | -74.22516 | 12089 ft | 268 kts | 258° |
| 2026-04-25 19:15 | 4.60816 | -74.24449 | 12269 ft | 291 kts | 259° |
| 2026-04-25 19:15 | 4.60415 | -74.26524 | 12430 ft | 314 kts | 258° |
| 2026-04-25 19:16 | 4.59641 | -74.28613 | 12574 ft | 336 kts | 241° |
| 2026-04-25 19:16 | 4.58501 | -74.30698 | 13021 ft | 346 kts | 242° |
| 2026-04-25 19:16 | 4.57385 | -74.32849 | 13629 ft | 350 kts | 243° |
| 2026-04-25 19:16 | 4.56281 | -74.35039 | 14222 ft | 353 kts | 243° |
| 2026-04-25 19:17 | 4.55173 | -74.37252 | 14754 ft | 356 kts | 243° |
| 2026-04-25 19:17 | 4.54056 | -74.39474 | 15312 ft | 359 kts | 243° |
| 2026-04-25 19:17 | 4.52921 | -74.41721 | 15865 ft | 362 kts | 243° |
| 2026-04-25 19:17 | 4.51775 | -74.43977 | 16375 ft | 365 kts | 243° |
| 2026-04-25 19:18 | 4.50612 | -74.46258 | 16937 ft | 368 kts | 243° |
| 2026-04-25 19:18 | 4.49437 | -74.48552 | 17467 ft | 372 kts | 243° |
| 2026-04-25 19:18 | 4.48252 | -74.50863 | 17598 ft | 370 kts | 243° |
| 2026-04-25 19:18 | 4.47097 | -74.53114 | 17626 ft | 359 kts | 243° |
| 2026-04-25 19:19 | 4.45964 | -74.55324 | 17629 ft | 355 kts | 243° |
| 2026-04-25 19:19 | 4.44834 | -74.57525 | 17623 ft | 355 kts | 243° |
| 2026-04-25 19:19 | 4.43706 | -74.59725 | 17621 ft | 355 kts | 243° |
| 2026-04-25 19:19 | 4.42959 | -74.61186 | 17613 ft | 355 kts | 243° |
| 2026-04-25 19:20 | 4.41454 | -74.64128 | 17607 ft | 354 kts | 243° |
| 2026-04-25 19:20 | 4.40328 | -74.66323 | 17596 ft | 354 kts | 243° |
| 2026-04-25 19:20 | 4.39201 | -74.68525 | 17588 ft | 354 kts | 243° |
| 2026-04-25 19:20 | 4.38077 | -74.70718 | 17583 ft | 354 kts | 243° |
| 2026-04-25 19:21 | 4.36945 | -74.72917 | 17579 ft | 354 kts | 243° |
| 2026-04-25 19:21 | 4.34681 | -74.77305 | 17576 ft | 355 kts | 243° |
| 2026-04-25 19:21 | 4.33547 | -74.79504 | 17581 ft | 355 kts | 243° |
| 2026-04-25 19:22 | 4.32446 | -74.81711 | 17583 ft | 354 kts | 248° |
| 2026-04-25 19:22 | 4.31756 | -74.84039 | 17577 ft | 354 kts | 261° |
| 2026-04-25 19:22 | 4.31984 | -74.88919 | 17586 ft | 353 kts | 283° |
| 2026-04-25 19:23 | 4.32543 | -74.91323 | 17591 ft | 353 kts | 283° |
| 2026-04-25 19:23 | 4.33642 | -74.96128 | 17600 ft | 354 kts | 283° |
| 2026-04-25 19:23 | 4.34190 | -74.98534 | 17603 ft | 354 kts | 283° |
| 2026-04-25 19:24 | 4.34739 | -75.00939 | 17705 ft | 354 kts | 283° |
| 2026-04-25 19:24 | 4.35290 | -75.03346 | 17704 ft | 354 kts | 283° |
| 2026-04-25 19:24 | 4.36395 | -75.08158 | 17723 ft | 354 kts | 283° |
| 2026-04-25 19:25 | 4.37493 | -75.12935 | 17719 ft | 354 kts | 283° |
| 2026-04-25 19:25 | 4.38045 | -75.15339 | 17727 ft | 354 kts | 283° |
| 2026-04-25 19:25 | 4.38595 | -75.17746 | 17725 ft | 354 kts | 283° |
| 2026-04-25 19:26 | 4.39146 | -75.20153 | 17720 ft | 354 kts | 283° |
| 2026-04-25 19:26 | 4.39697 | -75.22551 | 17725 ft | 354 kts | 283° |
| 2026-04-25 19:26 | 4.40248 | -75.24955 | 17722 ft | 354 kts | 283° |
| 2026-04-25 19:26 | 4.40797 | -75.27361 | 17724 ft | 354 kts | 283° |
| 2026-04-25 19:27 | 4.41345 | -75.29767 | 17712 ft | 354 kts | 283° |
| 2026-04-25 19:27 | 4.41530 | -75.30578 | 17719 ft | 354 kts | 283° |
| 2026-04-25 19:27 | 4.42449 | -75.34576 | 17716 ft | 354 kts | 283° |
| 2026-04-25 19:27 | 4.43002 | -75.36979 | 17749 ft | 354 kts | 283° |
| 2026-04-25 19:28 | 4.43556 | -75.39383 | 17760 ft | 354 kts | 283° |
| 2026-04-25 19:28 | 4.44107 | -75.41786 | 17633 ft | 353 kts | 282° |
| 2026-04-25 19:28 | 4.44653 | -75.44180 | 17197 ft | 351 kts | 283° |
| 2026-04-25 19:28 | 4.45196 | -75.46550 | 16659 ft | 343 kts | 283° |
| 2026-04-25 19:29 | 4.45718 | -75.48837 | 16258 ft | 330 kts | 283° |
| 2026-04-25 19:29 | 4.46219 | -75.51031 | 15956 ft | 315 kts | 283° |
| 2026-04-25 19:29 | 4.46689 | -75.53087 | 15744 ft | 299 kts | 283° |
| 2026-04-25 19:29 | 4.47143 | -75.55071 | 15505 ft | 286 kts | 283° |
| 2026-04-25 19:30 | 4.47549 | -75.56978 | 15190 ft | 277 kts | 281° |
| 2026-04-25 19:30 | 4.47886 | -75.58880 | 14787 ft | 273 kts | 279° |
| 2026-04-25 19:30 | 4.48182 | -75.60725 | 14623 ft | 266 kts | 279° |
| 2026-04-25 19:30 | 4.48466 | -75.62531 | 14480 ft | 257 kts | 279° |
| 2026-04-25 19:31 | 4.48819 | -75.64235 | 14351 ft | 245 kts | 292° |
| 2026-04-25 19:31 | 4.49784 | -75.65621 | 14005 ft | 246 kts | 321° |
| 2026-04-25 19:31 | 4.51311 | -75.66356 | 13668 ft | 247 kts | 349° |
| 2026-04-25 19:31 | 4.53016 | -75.66265 | 13330 ft | 248 kts | 12° |
| 2026-04-25 19:32 | 4.54697 | -75.65840 | 12960 ft | 249 kts | 12° |
| 2026-04-25 19:32 | 4.56378 | -75.65421 | 12608 ft | 249 kts | 12° |
| 2026-04-25 19:32 | 4.58055 | -75.65007 | 12247 ft | 248 kts | 12° |
| 2026-04-25 19:32 | 4.58621 | -75.64868 | 12127 ft | 248 kts | 12° |
| 2026-04-25 19:33 | 4.61393 | -75.64190 | 11539 ft | 244 kts | 11° |
| 2026-04-25 19:33 | 4.63026 | -75.63789 | 11230 ft | 240 kts | 12° |
| 2026-04-25 19:33 | 4.64634 | -75.63394 | 10898 ft | 237 kts | 12° |
| 2026-04-25 19:33 | 4.66226 | -75.63007 | 10555 ft | 234 kts | 9° |
| 2026-04-25 19:34 | 4.67817 | -75.63005 | 10190 ft | 228 kts | 341° |
| 2026-04-25 19:34 | 4.69155 | -75.63800 | 9828 ft | 225 kts | 311° |
| 2026-04-25 19:34 | 4.69910 | -75.65158 | 9441 ft | 226 kts | 282° |
| 2026-04-25 19:34 | 4.69886 | -75.66700 | 9098 ft | 228 kts | 253° |
| 2026-04-25 19:35 | 4.69312 | -75.68186 | 8802 ft | 230 kts | 248° |
| 2026-04-25 19:35 | 4.68671 | -75.69670 | 8486 ft | 233 kts | 239° |
| 2026-04-25 19:35 | 4.67654 | -75.70877 | 8294 ft | 221 kts | 219° |
| 2026-04-25 19:35 | 4.66356 | -75.71614 | 8029 ft | 210 kts | 199° |
| 2026-04-25 19:36 | 4.64953 | -75.71969 | 7698 ft | 206 kts | 194° |
| 2026-04-25 19:36 | 4.64018 | -75.72190 | 7468 ft | 202 kts | 194° |
| 2026-04-25 19:36 | 4.62256 | -75.72607 | 7090 ft | 194 kts | 193° |
| 2026-04-25 19:36 | 4.61373 | -75.72815 | 6930 ft | 192 kts | 193° |
| 2026-04-25 19:37 | 4.60094 | -75.73116 | 6694 ft | 190 kts | 193° |
| 2026-04-25 19:37 | 4.58815 | -75.73417 | 6465 ft | 188 kts | 193° |
| 2026-04-25 19:37 | 4.57547 | -75.73716 | 6225 ft | 186 kts | 193° |
| 2026-04-25 19:37 | 4.56293 | -75.74011 | 5981 ft | 184 kts | 193° |
| 2026-04-25 19:38 | 4.55057 | -75.74302 | 5739 ft | 180 kts | 193° |
| 2026-04-25 19:38 | 4.53872 | -75.74581 | 5533 ft | 168 kts | 193° |
| 2026-04-25 19:38 | 4.52769 | -75.74841 | 5326 ft | 159 kts | 194° |
| 2026-04-25 19:38 | 4.51703 | -75.75094 | 5094 ft | 156 kts | 193° |
| 2026-04-25 19:39 | 4.50655 | -75.75341 | 4904 ft | 154 kts | 193° |
| 2026-04-25 19:39 | 4.49615 | -75.75583 | 4719 ft | 153 kts | 193° |
| 2026-04-25 19:39 | 4.48574 | -75.75826 | 4515 ft | 154 kts | 193° |
| 2026-04-25 19:39 | 4.47530 | -75.76075 | 4310 ft | 155 kts | 193° |
| 2026-04-25 19:40 | 4.46474 | -75.76323 | 4103 ft | 156 kts | 192° |
| 2026-04-25 19:40 | 4.45445 | -75.76568 | 3985 ft | 140 kts | 193° |
| 2026-04-25 19:40 | 4.44703 | -75.76747 | 3978 ft | 70 kts | 193° |
| 2026-04-25 19:40 | 4.44385 | -75.76823 | 3986 ft | 38 kts | 193° |
| 2026-04-25 19:41 | 4.44154 | -75.76878 | 3978 ft | 23 kts | 194° |
| 2026-04-25 19:41 | 4.44057 | -75.76890 | 3982 ft | 7 kts | 166° |
| 2026-04-25 19:41 | 4.44058 | -75.76901 | 3977 ft | 2 kts | 337° |
| 2026-04-25 19:41 | 4.44077 | -75.76897 | 3982 ft | 6 kts | 14° |
| 2026-04-25 19:42 | 4.44158 | -75.76877 | 3983 ft | 12 kts | 13° |
| 2026-04-25 19:42 | 4.44253 | -75.76855 | 3984 ft | 16 kts | 13° |
| 2026-04-25 19:42 | 4.44370 | -75.76827 | 3986 ft | 19 kts | 13° |
| 2026-04-25 19:42 | 4.44513 | -75.76793 | 3986 ft | 23 kts | 14° |
| 2026-04-25 19:43 | 4.44670 | -75.76754 | 3986 ft | 23 kts | 13° |
| 2026-04-25 19:43 | 4.44832 | -75.76716 | 3983 ft | 24 kts | 13° |
| 2026-04-25 19:43 | 4.44997 | -75.76676 | 3982 ft | 22 kts | 14° |
| 2026-04-25 19:43 | 4.45122 | -75.76647 | 3978 ft | 13 kts | 13° |
| 2026-04-25 19:44 | 4.45187 | -75.76638 | 3984 ft | 8 kts | 340° |
| 2026-04-25 19:44 | 4.45221 | -75.76679 | 3982 ft | 8 kts | 303° |
| 2026-04-25 19:44 | 4.45251 | -75.76704 | 3985 ft | 3 kts | 359° |
| 2026-04-25 19:44 | 4.45269 | -75.76710 | 3985 ft | 4 kts | 317° |
| 2026-04-25 19:45 | 4.45277 | -75.76741 | 3984 ft | 5 kts | 282° |
| 2026-04-25 19:45 | 4.45281 | -75.76758 | 3984 ft | 0 kts | 283° |